sensor_id;sensor_type;location;lat;lon;timestamp;P1;durP1;ratioP1;P2;durP2;ratioP2
19877;SDS011;10101;52.204;9.910;2022-07-29T00:00:03;2.33;;;0.90;;
19877;SDS011;10101;52.204;9.910;2022-07-29T00:02:31;3.00;;;1.33;;
19877;SDS011;10101;52.204;9.910;2022-07-29T00:05:00;5.07;;;1.23;;
19877;SDS011;10101;52.204;9.910;2022-07-29T00:07:27;3.47;;;1.00;;
19877;SDS011;10101;52.204;9.910;2022-07-29T00:09:53;4.67;;;1.00;;
19877;SDS011;10101;52.204;9.910;2022-07-29T00:12:21;2.80;;;1.10;;
19877;SDS011;10101;52.204;9.910;2022-07-29T00:14:49;2.77;;;1.10;;
19877;SDS011;10101;52.204;9.910;2022-07-29T00:17:16;1.87;;;1.20;;
19877;SDS011;10101;52.204;9.910;2022-07-29T00:19:43;2.40;;;1.10;;
19877;SDS011;10101;52.204;9.910;2022-07-29T00:22:11;2.03;;;1.00;;
19877;SDS011;10101;52.204;9.910;2022-07-29T00:24:38;4.27;;;1.20;;
19877;SDS011;10101;52.204;9.910;2022-07-29T00:27:04;3.47;;;1.30;;
19877;SDS011;10101;52.204;9.910;2022-07-29T00:29:31;3.20;;;1.27;;
19877;SDS011;10101;52.204;9.910;2022-07-29T00:31:58;3.23;;;1.30;;
19877;SDS011;10101;52.204;9.910;2022-07-29T00:34:25;2.27;;;1.10;;
19877;SDS011;10101;52.204;9.910;2022-07-29T00:37:09;5.00;;;1.20;;
19877;SDS011;10101;52.204;9.910;2022-07-29T00:39:37;2.37;;;1.20;;
19877;SDS011;10101;52.204;9.910;2022-07-29T00:42:04;6.90;;;1.30;;
19877;SDS011;10101;52.204;9.910;2022-07-29T00:44:35;5.27;;;1.17;;
19877;SDS011;10101;52.204;9.910;2022-07-29T00:47:02;4.83;;;1.10;;
19877;SDS011;10101;52.204;9.910;2022-07-29T00:49:29;3.00;;;1.13;;
19877;SDS011;10101;52.204;9.910;2022-07-29T00:51:57;3.63;;;1.10;;
19877;SDS011;10101;52.204;9.910;2022-07-29T00:54:24;4.23;;;1.30;;
19877;SDS011;10101;52.204;9.910;2022-07-29T00:56:53;6.07;;;1.17;;
19877;SDS011;10101;52.204;9.910;2022-07-29T00:59:20;4.27;;;1.10;;
19877;SDS011;10101;52.204;9.910;2022-07-29T01:01:46;5.13;;;1.33;;
19877;SDS011;10101;52.204;9.910;2022-07-29T01:04:13;2.07;;;1.30;;
19877;SDS011;10101;52.204;9.910;2022-07-29T01:06:40;5.03;;;1.43;;
19877;SDS011;10101;52.204;9.910;2022-07-29T01:09:08;3.50;;;1.10;;
19877;SDS011;10101;52.204;9.910;2022-07-29T01:11:36;4.83;;;1.20;;
19877;SDS011;10101;52.204;9.910;2022-07-29T01:14:06;2.17;;;1.10;;
19877;SDS011;10101;52.204;9.910;2022-07-29T01:16:35;4.70;;;1.53;;
19877;SDS011;10101;52.204;9.910;2022-07-29T01:19:12;4.50;;;1.30;;
19877;SDS011;10101;52.204;9.910;2022-07-29T01:21:57;4.53;;;1.40;;
19877;SDS011;10101;52.204;9.910;2022-07-29T01:24:34;7.13;;;1.50;;
19877;SDS011;10101;52.204;9.910;2022-07-29T01:27:19;5.93;;;1.10;;
19877;SDS011;10101;52.204;9.910;2022-07-29T01:30:00;3.67;;;1.30;;
19877;SDS011;10101;52.204;9.910;2022-07-29T01:32:30;1.57;;;1.10;;
19877;SDS011;10101;52.204;9.910;2022-07-29T01:35:01;4.67;;;1.30;;
19877;SDS011;10101;52.204;9.910;2022-07-29T01:37:32;3.80;;;1.13;;
19877;SDS011;10101;52.204;9.910;2022-07-29T01:40:04;5.23;;;1.27;;
19877;SDS011;10101;52.204;9.910;2022-07-29T01:42:36;3.40;;;1.20;;
19877;SDS011;10101;52.204;9.910;2022-07-29T01:45:10;1.60;;;1.10;;
19877;SDS011;10101;52.204;9.910;2022-07-29T01:47:42;2.13;;;1.07;;
19877;SDS011;10101;52.204;9.910;2022-07-29T01:50:12;4.87;;;1.20;;
19877;SDS011;10101;52.204;9.910;2022-07-29T01:52:44;1.57;;;1.33;;
19877;SDS011;10101;52.204;9.910;2022-07-29T01:55:16;2.27;;;1.13;;
19877;SDS011;10101;52.204;9.910;2022-07-29T01:57:47;7.87;;;1.77;;
19877;SDS011;10101;52.204;9.910;2022-07-29T02:00:16;2.90;;;1.30;;
19877;SDS011;10101;52.204;9.910;2022-07-29T02:02:44;3.30;;;1.00;;
19877;SDS011;10101;52.204;9.910;2022-07-29T02:05:14;4.00;;;1.20;;
19877;SDS011;10101;52.204;9.910;2022-07-29T02:07:44;5.17;;;1.30;;
19877;SDS011;10101;52.204;9.910;2022-07-29T02:10:13;4.50;;;1.43;;
19877;SDS011;10101;52.204;9.910;2022-07-29T02:12:42;4.67;;;1.20;;
19877;SDS011;10101;52.204;9.910;2022-07-29T02:15:12;1.50;;;0.97;;
19877;SDS011;10101;52.204;9.910;2022-07-29T02:17:44;2.60;;;1.50;;
19877;SDS011;10101;52.204;9.910;2022-07-29T02:20:14;1.70;;;1.10;;
19877;SDS011;10101;52.204;9.910;2022-07-29T02:22:43;2.43;;;1.10;;
19877;SDS011;10101;52.204;9.910;2022-07-29T02:25:11;1.43;;;1.20;;
19877;SDS011;10101;52.204;9.910;2022-07-29T02:27:39;2.57;;;1.10;;
19877;SDS011;10101;52.204;9.910;2022-07-29T02:30:08;1.77;;;1.10;;
19877;SDS011;10101;52.204;9.910;2022-07-29T02:32:39;2.53;;;1.10;;
19877;SDS011;10101;52.204;9.910;2022-07-29T02:35:08;1.70;;;1.20;;
19877;SDS011;10101;52.204;9.910;2022-07-29T02:37:36;1.87;;;1.17;;
19877;SDS011;10101;52.204;9.910;2022-07-29T02:40:04;6.30;;;1.43;;
19877;SDS011;10101;52.204;9.910;2022-07-29T02:42:35;2.43;;;1.30;;
19877;SDS011;10101;52.204;9.910;2022-07-29T02:45:04;3.27;;;1.27;;
19877;SDS011;10101;52.204;9.910;2022-07-29T02:47:33;2.10;;;1.30;;
19877;SDS011;10101;52.204;9.910;2022-07-29T02:50:04;3.43;;;1.20;;
19877;SDS011;10101;52.204;9.910;2022-07-29T02:52:37;2.07;;;1.30;;
19877;SDS011;10101;52.204;9.910;2022-07-29T02:55:10;3.73;;;1.13;;
19877;SDS011;10101;52.204;9.910;2022-07-29T02:57:44;2.27;;;1.10;;
19877;SDS011;10101;52.204;9.910;2022-07-29T03:00:15;2.97;;;1.40;;
19877;SDS011;10101;52.204;9.910;2022-07-29T03:02:44;3.87;;;1.33;;
19877;SDS011;10101;52.204;9.910;2022-07-29T03:05:17;3.23;;;0.90;;
19877;SDS011;10101;52.204;9.910;2022-07-29T03:07:47;1.20;;;1.10;;
19877;SDS011;10101;52.204;9.910;2022-07-29T03:10:18;3.20;;;1.37;;
19877;SDS011;10101;52.204;9.910;2022-07-29T03:12:46;4.70;;;1.37;;
19877;SDS011;10101;52.204;9.910;2022-07-29T03:15:13;3.93;;;1.40;;
19877;SDS011;10101;52.204;9.910;2022-07-29T03:17:40;2.63;;;1.33;;
19877;SDS011;10101;52.204;9.910;2022-07-29T03:20:08;4.73;;;1.50;;
19877;SDS011;10101;52.204;9.910;2022-07-29T03:22:39;1.80;;;1.07;;
19877;SDS011;10101;52.204;9.910;2022-07-29T03:25:09;4.07;;;1.43;;
19877;SDS011;10101;52.204;9.910;2022-07-29T03:27:36;4.33;;;1.30;;
19877;SDS011;10101;52.204;9.910;2022-07-29T03:30:03;3.90;;;1.87;;
19877;SDS011;10101;52.204;9.910;2022-07-29T03:32:30;1.87;;;1.30;;
19877;SDS011;10101;52.204;9.910;2022-07-29T03:34:57;2.50;;;1.13;;
19877;SDS011;10101;52.204;9.910;2022-07-29T03:37:24;2.10;;;1.30;;
19877;SDS011;10101;52.204;9.910;2022-07-29T03:39:52;3.57;;;1.53;;
19877;SDS011;10101;52.204;9.910;2022-07-29T03:42:21;4.50;;;1.80;;
19877;SDS011;10101;52.204;9.910;2022-07-29T03:44:51;2.53;;;1.40;;
19877;SDS011;10101;52.204;9.910;2022-07-29T03:47:18;3.83;;;1.67;;
19877;SDS011;10101;52.204;9.910;2022-07-29T03:49:50;7.03;;;1.33;;
19877;SDS011;10101;52.204;9.910;2022-07-29T03:52:23;5.33;;;1.40;;
19877;SDS011;10101;52.204;9.910;2022-07-29T03:54:50;4.03;;;1.37;;
19877;SDS011;10101;52.204;9.910;2022-07-29T03:57:18;4.77;;;1.30;;
19877;SDS011;10101;52.204;9.910;2022-07-29T03:59:50;4.20;;;1.40;;
19877;SDS011;10101;52.204;9.910;2022-07-29T04:02:18;5.57;;;1.40;;
19877;SDS011;10101;52.204;9.910;2022-07-29T04:04:45;2.73;;;1.10;;
19877;SDS011;10101;52.204;9.910;2022-07-29T04:07:12;5.30;;;1.33;;
19877;SDS011;10101;52.204;9.910;2022-07-29T04:09:39;3.97;;;1.10;;
19877;SDS011;10101;52.204;9.910;2022-07-29T04:12:08;4.17;;;1.30;;
19877;SDS011;10101;52.204;9.910;2022-07-29T04:14:35;5.53;;;1.30;;
19877;SDS011;10101;52.204;9.910;2022-07-29T04:17:03;3.73;;;1.10;;
19877;SDS011;10101;52.204;9.910;2022-07-29T04:19:31;2.67;;;1.20;;
19877;SDS011;10101;52.204;9.910;2022-07-29T04:21:58;4.07;;;1.50;;
19877;SDS011;10101;52.204;9.910;2022-07-29T04:24:25;3.97;;;1.47;;
19877;SDS011;10101;52.204;9.910;2022-07-29T04:26:53;3.63;;;1.37;;
19877;SDS011;10101;52.204;9.910;2022-07-29T04:29:21;3.60;;;1.27;;
19877;SDS011;10101;52.204;9.910;2022-07-29T04:31:48;2.37;;;1.20;;
19877;SDS011;10101;52.204;9.910;2022-07-29T04:34:15;6.67;;;1.57;;
19877;SDS011;10101;52.204;9.910;2022-07-29T04:36:41;4.13;;;1.10;;
19877;SDS011;10101;52.204;9.910;2022-07-29T04:39:08;2.60;;;1.20;;
19877;SDS011;10101;52.204;9.910;2022-07-29T04:41:35;8.10;;;1.27;;
19877;SDS011;10101;52.204;9.910;2022-07-29T04:44:02;3.43;;;1.17;;
19877;SDS011;10101;52.204;9.910;2022-07-29T04:46:31;2.97;;;1.17;;
19877;SDS011;10101;52.204;9.910;2022-07-29T04:48:58;2.63;;;1.10;;
19877;SDS011;10101;52.204;9.910;2022-07-29T04:51:25;5.73;;;1.40;;
19877;SDS011;10101;52.204;9.910;2022-07-29T04:53:54;4.43;;;1.60;;
19877;SDS011;10101;52.204;9.910;2022-07-29T04:56:21;2.07;;;1.10;;
19877;SDS011;10101;52.204;9.910;2022-07-29T04:58:48;2.63;;;1.00;;
19877;SDS011;10101;52.204;9.910;2022-07-29T05:01:15;4.80;;;1.50;;
19877;SDS011;10101;52.204;9.910;2022-07-29T05:03:43;5.20;;;1.60;;
19877;SDS011;10101;52.204;9.910;2022-07-29T05:06:10;2.80;;;1.23;;
19877;SDS011;10101;52.204;9.910;2022-07-29T05:08:37;4.23;;;1.30;;
19877;SDS011;10101;52.204;9.910;2022-07-29T05:11:04;3.23;;;1.37;;
19877;SDS011;10101;52.204;9.910;2022-07-29T05:13:31;2.07;;;1.30;;
19877;SDS011;10101;52.204;9.910;2022-07-29T05:15:58;3.17;;;1.30;;
19877;SDS011;10101;52.204;9.910;2022-07-29T05:18:25;6.37;;;1.70;;
19877;SDS011;10101;52.204;9.910;2022-07-29T05:20:53;2.77;;;1.40;;
19877;SDS011;10101;52.204;9.910;2022-07-29T05:23:20;3.37;;;1.53;;
19877;SDS011;10101;52.204;9.910;2022-07-29T05:25:47;2.10;;;1.17;;
19877;SDS011;10101;52.204;9.910;2022-07-29T05:28:15;3.60;;;1.43;;
19877;SDS011;10101;52.204;9.910;2022-07-29T05:30:42;3.80;;;1.60;;
19877;SDS011;10101;52.204;9.910;2022-07-29T05:33:09;7.07;;;1.60;;
19877;SDS011;10101;52.204;9.910;2022-07-29T05:35:36;2.77;;;1.13;;
19877;SDS011;10101;52.204;9.910;2022-07-29T05:38:04;3.57;;;1.60;;
19877;SDS011;10101;52.204;9.910;2022-07-29T05:40:31;4.63;;;1.40;;
19877;SDS011;10101;52.204;9.910;2022-07-29T05:42:59;7.30;;;1.60;;
19877;SDS011;10101;52.204;9.910;2022-07-29T05:45:26;2.77;;;1.30;;
19877;SDS011;10101;52.204;9.910;2022-07-29T05:47:52;4.07;;;1.53;;
19877;SDS011;10101;52.204;9.910;2022-07-29T05:50:19;2.90;;;1.63;;
19877;SDS011;10101;52.204;9.910;2022-07-29T05:52:46;6.60;;;2.03;;
19877;SDS011;10101;52.204;9.910;2022-07-29T05:55:14;2.10;;;1.27;;
19877;SDS011;10101;52.204;9.910;2022-07-29T05:57:41;4.43;;;1.30;;
19877;SDS011;10101;52.204;9.910;2022-07-29T06:00:09;4.00;;;1.20;;
19877;SDS011;10101;52.204;9.910;2022-07-29T06:02:36;5.37;;;1.67;;
19877;SDS011;10101;52.204;9.910;2022-07-29T06:05:03;5.60;;;1.40;;
19877;SDS011;10101;52.204;9.910;2022-07-29T06:07:30;4.80;;;1.30;;
19877;SDS011;10101;52.204;9.910;2022-07-29T06:09:57;3.40;;;1.27;;
19877;SDS011;10101;52.204;9.910;2022-07-29T06:12:25;4.57;;;1.23;;
19877;SDS011;10101;52.204;9.910;2022-07-29T06:14:52;5.23;;;1.50;;
19877;SDS011;10101;52.204;9.910;2022-07-29T06:17:19;3.07;;;1.30;;
19877;SDS011;10101;52.204;9.910;2022-07-29T06:19:45;4.60;;;1.57;;
19877;SDS011;10101;52.204;9.910;2022-07-29T06:22:14;6.13;;;1.60;;
19877;SDS011;10101;52.204;9.910;2022-07-29T06:24:41;7.07;;;1.60;;
19877;SDS011;10101;52.204;9.910;2022-07-29T06:27:09;2.53;;;1.30;;
19877;SDS011;10101;52.204;9.910;2022-07-29T06:29:37;6.00;;;1.70;;
19877;SDS011;10101;52.204;9.910;2022-07-29T06:32:04;9.20;;;1.60;;
19877;SDS011;10101;52.204;9.910;2022-07-29T06:34:31;7.30;;;1.40;;
19877;SDS011;10101;52.204;9.910;2022-07-29T06:36:58;7.83;;;1.63;;
19877;SDS011;10101;52.204;9.910;2022-07-29T06:39:25;8.67;;;1.63;;
19877;SDS011;10101;52.204;9.910;2022-07-29T06:41:52;7.33;;;1.83;;
19877;SDS011;10101;52.204;9.910;2022-07-29T06:44:19;4.30;;;1.30;;
19877;SDS011;10101;52.204;9.910;2022-07-29T06:46:47;3.53;;;2.07;;
19877;SDS011;10101;52.204;9.910;2022-07-29T06:49:16;3.37;;;1.60;;
19877;SDS011;10101;52.204;9.910;2022-07-29T06:51:43;7.43;;;2.27;;
19877;SDS011;10101;52.204;9.910;2022-07-29T06:54:10;4.27;;;1.60;;
19877;SDS011;10101;52.204;9.910;2022-07-29T06:56:38;6.70;;;1.70;;
19877;SDS011;10101;52.204;9.910;2022-07-29T06:59:07;4.67;;;1.63;;
19877;SDS011;10101;52.204;9.910;2022-07-29T07:01:35;4.50;;;1.90;;
19877;SDS011;10101;52.204;9.910;2022-07-29T07:04:04;3.43;;;1.47;;
19877;SDS011;10101;52.204;9.910;2022-07-29T07:06:31;5.60;;;1.60;;
19877;SDS011;10101;52.204;9.910;2022-07-29T07:08:58;7.53;;;1.83;;
19877;SDS011;10101;52.204;9.910;2022-07-29T07:11:24;3.37;;;1.43;;
19877;SDS011;10101;52.204;9.910;2022-07-29T07:13:51;4.90;;;1.60;;
19877;SDS011;10101;52.204;9.910;2022-07-29T07:16:19;7.33;;;1.50;;
19877;SDS011;10101;52.204;9.910;2022-07-29T07:18:45;7.50;;;1.60;;
19877;SDS011;10101;52.204;9.910;2022-07-29T07:21:13;4.37;;;1.50;;
19877;SDS011;10101;52.204;9.910;2022-07-29T07:23:40;2.83;;;1.50;;
19877;SDS011;10101;52.204;9.910;2022-07-29T07:26:07;3.33;;;1.60;;
19877;SDS011;10101;52.204;9.910;2022-07-29T07:28:35;2.40;;;1.30;;
19877;SDS011;10101;52.204;9.910;2022-07-29T07:31:01;7.63;;;1.80;;
19877;SDS011;10101;52.204;9.910;2022-07-29T07:33:28;3.90;;;1.57;;
19877;SDS011;10101;52.204;9.910;2022-07-29T07:35:55;3.30;;;1.50;;
19877;SDS011;10101;52.204;9.910;2022-07-29T07:38:23;7.47;;;1.50;;
19877;SDS011;10101;52.204;9.910;2022-07-29T07:40:50;3.00;;;1.60;;
19877;SDS011;10101;52.204;9.910;2022-07-29T07:43:17;4.90;;;1.50;;
19877;SDS011;10101;52.204;9.910;2022-07-29T07:45:43;5.80;;;1.90;;
19877;SDS011;10101;52.204;9.910;2022-07-29T07:48:10;5.57;;;1.80;;
19877;SDS011;10101;52.204;9.910;2022-07-29T07:50:37;6.57;;;1.60;;
19877;SDS011;10101;52.204;9.910;2022-07-29T07:53:04;4.93;;;1.63;;
19877;SDS011;10101;52.204;9.910;2022-07-29T07:55:33;4.63;;;1.90;;
19877;SDS011;10101;52.204;9.910;2022-07-29T07:57:59;7.13;;;2.03;;
19877;SDS011;10101;52.204;9.910;2022-07-29T08:00:26;4.97;;;1.90;;
19877;SDS011;10101;52.204;9.910;2022-07-29T08:02:53;3.90;;;1.33;;
19877;SDS011;10101;52.204;9.910;2022-07-29T08:05:20;5.07;;;1.60;;
19877;SDS011;10101;52.204;9.910;2022-07-29T08:07:46;6.63;;;1.77;;
19877;SDS011;10101;52.204;9.910;2022-07-29T08:10:13;3.10;;;1.70;;
19877;SDS011;10101;52.204;9.910;2022-07-29T08:13:02;7.53;;;1.53;;
19877;SDS011;10101;52.204;9.910;2022-07-29T08:15:30;5.03;;;1.70;;
19877;SDS011;10101;52.204;9.910;2022-07-29T08:17:57;5.70;;;1.83;;
19877;SDS011;10101;52.204;9.910;2022-07-29T08:20:23;5.37;;;1.70;;
19877;SDS011;10101;52.204;9.910;2022-07-29T08:22:50;5.65;;;1.60;;
19877;SDS011;10101;52.204;9.910;2022-07-29T08:25:18;5.00;;;1.67;;
19877;SDS011;10101;52.204;9.910;2022-07-29T08:27:45;3.03;;;1.73;;
19877;SDS011;10101;52.204;9.910;2022-07-29T08:30:14;4.40;;;1.73;;
19877;SDS011;10101;52.204;9.910;2022-07-29T08:32:41;4.33;;;1.67;;
19877;SDS011;10101;52.204;9.910;2022-07-29T08:35:08;5.95;;;1.92;;
19877;SDS011;10101;52.204;9.910;2022-07-29T08:37:35;10.50;;;2.03;;
19877;SDS011;10101;52.204;9.910;2022-07-29T08:40:02;4.55;;;1.88;;
19877;SDS011;10101;52.204;9.910;2022-07-29T08:42:29;6.35;;;1.98;;
19877;SDS011;10101;52.204;9.910;2022-07-29T08:44:56;2.85;;;1.42;;
19877;SDS011;10101;52.204;9.910;2022-07-29T08:47:25;4.38;;;1.55;;
19877;SDS011;10101;52.204;9.910;2022-07-29T08:49:53;4.05;;;1.63;;
19877;SDS011;10101;52.204;9.910;2022-07-29T08:52:20;4.35;;;1.63;;
19877;SDS011;10101;52.204;9.910;2022-07-29T08:54:51;7.22;;;1.58;;
19877;SDS011;10101;52.204;9.910;2022-07-29T08:57:19;3.25;;;1.40;;
19877;SDS011;10101;52.204;9.910;2022-07-29T08:59:47;4.72;;;1.40;;
19877;SDS011;10101;52.204;9.910;2022-07-29T09:02:18;7.18;;;2.15;;
19877;SDS011;10101;52.204;9.910;2022-07-29T09:04:48;2.95;;;1.70;;
19877;SDS011;10101;52.204;9.910;2022-07-29T09:07:15;6.20;;;1.63;;
19877;SDS011;10101;52.204;9.910;2022-07-29T09:09:44;4.97;;;1.45;;
19877;SDS011;10101;52.204;9.910;2022-07-29T09:12:11;5.80;;;1.70;;
19877;SDS011;10101;52.204;9.910;2022-07-29T09:14:39;5.50;;;1.75;;
19877;SDS011;10101;52.204;9.910;2022-07-29T09:17:06;6.70;;;2.10;;
19877;SDS011;10101;52.204;9.910;2022-07-29T09:19:34;4.10;;;1.70;;
19877;SDS011;10101;52.204;9.910;2022-07-29T09:22:04;6.65;;;1.73;;
19877;SDS011;10101;52.204;9.910;2022-07-29T09:24:38;4.97;;;1.70;;
19877;SDS011;10101;52.204;9.910;2022-07-29T09:29:55;5.45;;;1.58;;
19877;SDS011;10101;52.204;9.910;2022-07-29T09:32:23;12.07;;;1.83;;
19877;SDS011;10101;52.204;9.910;2022-07-29T09:34:51;3.72;;;1.35;;
19877;SDS011;10101;52.204;9.910;2022-07-29T09:37:40;5.30;;;1.60;;
19877;SDS011;10101;52.204;9.910;2022-07-29T09:40:11;3.67;;;1.45;;
19877;SDS011;10101;52.204;9.910;2022-07-29T09:42:39;6.85;;;1.70;;
19877;SDS011;10101;52.204;9.910;2022-07-29T09:45:06;5.22;;;1.58;;
19877;SDS011;10101;52.204;9.910;2022-07-29T09:47:40;3.50;;;1.55;;
19877;SDS011;10101;52.204;9.910;2022-07-29T09:50:10;2.80;;;1.60;;
19877;SDS011;10101;52.204;9.910;2022-07-29T09:52:45;4.50;;;2.03;;
19877;SDS011;10101;52.204;9.910;2022-07-29T09:55:12;5.47;;;1.85;;
19877;SDS011;10101;52.204;9.910;2022-07-29T09:57:40;6.32;;;1.83;;
19877;SDS011;10101;52.204;9.910;2022-07-29T10:00:08;2.70;;;1.63;;
19877;SDS011;10101;52.204;9.910;2022-07-29T10:02:37;5.80;;;1.70;;
19877;SDS011;10101;52.204;9.910;2022-07-29T10:05:06;4.97;;;1.80;;
19877;SDS011;10101;52.204;9.910;2022-07-29T10:07:43;5.18;;;1.67;;
19877;SDS011;10101;52.204;9.910;2022-07-29T10:10:18;6.68;;;1.88;;
19877;SDS011;10101;52.204;9.910;2022-07-29T10:12:48;3.90;;;1.80;;
19877;SDS011;10101;52.204;9.910;2022-07-29T10:15:16;4.85;;;1.50;;
19877;SDS011;10101;52.204;9.910;2022-07-29T10:17:43;4.18;;;1.90;;
19877;SDS011;10101;52.204;9.910;2022-07-29T10:20:11;6.97;;;2.00;;
19877;SDS011;10101;52.204;9.910;2022-07-29T10:22:38;3.90;;;1.73;;
19877;SDS011;10101;52.204;9.910;2022-07-29T10:25:08;5.22;;;1.98;;
19877;SDS011;10101;52.204;9.910;2022-07-29T10:27:35;7.82;;;1.92;;
19877;SDS011;10101;52.204;9.910;2022-07-29T10:30:02;3.03;;;1.48;;
19877;SDS011;10101;52.204;9.910;2022-07-29T10:32:33;4.10;;;1.63;;
19877;SDS011;10101;52.204;9.910;2022-07-29T10:35:12;7.55;;;2.70;;
19877;SDS011;10101;52.204;9.910;2022-07-29T10:38:02;6.30;;;1.75;;
19877;SDS011;10101;52.204;9.910;2022-07-29T10:40:41;4.55;;;1.80;;
19877;SDS011;10101;52.204;9.910;2022-07-29T10:43:42;2.55;;;1.65;;
19877;SDS011;10101;52.204;9.910;2022-07-29T10:46:11;4.57;;;1.80;;
19877;SDS011;10101;52.204;9.910;2022-07-29T10:54:37;6.13;;;1.88;;
19877;SDS011;10101;52.204;9.910;2022-07-29T10:57:23;2.58;;;1.52;;
19877;SDS011;10101;52.204;9.910;2022-07-29T11:02:52;6.60;;;1.88;;
19877;SDS011;10101;52.204;9.910;2022-07-29T11:05:21;8.70;;;1.88;;
19877;SDS011;10101;52.204;9.910;2022-07-29T11:10:51;4.18;;;1.83;;
19877;SDS011;10101;52.204;9.910;2022-07-29T11:13:47;9.45;;;1.90;;
19877;SDS011;10101;52.204;9.910;2022-07-29T11:16:15;4.45;;;2.10;;
19877;SDS011;10101;52.204;9.910;2022-07-29T11:21:49;3.17;;;1.80;;
19877;SDS011;10101;52.204;9.910;2022-07-29T11:24:17;5.65;;;1.95;;
19877;SDS011;10101;52.204;9.910;2022-07-29T11:29:39;6.60;;;2.10;;
19877;SDS011;10101;52.204;9.910;2022-07-29T11:32:15;5.97;;;2.00;;
19877;SDS011;10101;52.204;9.910;2022-07-29T11:34:44;4.72;;;1.80;;
19877;SDS011;10101;52.204;9.910;2022-07-29T11:37:16;3.58;;;1.73;;
19877;SDS011;10101;52.204;9.910;2022-07-29T11:39:44;3.95;;;1.80;;
19877;SDS011;10101;52.204;9.910;2022-07-29T11:45:12;7.82;;;2.05;;
19877;SDS011;10101;52.204;9.910;2022-07-29T11:47:41;6.80;;;1.80;;
19877;SDS011;10101;52.204;9.910;2022-07-29T11:50:13;3.70;;;1.90;;
19877;SDS011;10101;52.204;9.910;2022-07-29T11:52:42;3.45;;;1.75;;
19877;SDS011;10101;52.204;9.910;2022-07-29T11:55:10;3.95;;;1.95;;
19877;SDS011;10101;52.204;9.910;2022-07-29T11:57:44;5.15;;;2.08;;
19877;SDS011;10101;52.204;9.910;2022-07-29T12:00:20;5.10;;;1.60;;
19877;SDS011;10101;52.204;9.910;2022-07-29T12:02:48;4.35;;;1.90;;
19877;SDS011;10101;52.204;9.910;2022-07-29T12:05:16;6.10;;;2.72;;
19877;SDS011;10101;52.204;9.910;2022-07-29T12:07:43;4.07;;;1.83;;
19877;SDS011;10101;52.204;9.910;2022-07-29T12:10:10;3.50;;;1.90;;
19877;SDS011;10101;52.204;9.910;2022-07-29T12:12:37;3.90;;;1.80;;
19877;SDS011;10101;52.204;9.910;2022-07-29T12:15:15;5.68;;;1.90;;
19877;SDS011;10101;52.204;9.910;2022-07-29T12:17:45;3.92;;;2.00;;
19877;SDS011;10101;52.204;9.910;2022-07-29T12:20:13;7.03;;;2.30;;
19877;SDS011;10101;52.204;9.910;2022-07-29T12:22:48;2.85;;;1.80;;
19877;SDS011;10101;52.204;9.910;2022-07-29T12:25:15;5.07;;;1.60;;
19877;SDS011;10101;52.204;9.910;2022-07-29T12:27:43;4.60;;;1.73;;
19877;SDS011;10101;52.204;9.910;2022-07-29T12:30:11;3.95;;;2.13;;
19877;SDS011;10101;52.204;9.910;2022-07-29T12:32:42;9.05;;;2.13;;
19877;SDS011;10101;52.204;9.910;2022-07-29T12:35:11;7.32;;;2.00;;
19877;SDS011;10101;52.204;9.910;2022-07-29T12:37:40;5.55;;;1.90;;
19877;SDS011;10101;52.204;9.910;2022-07-29T12:40:09;5.25;;;1.90;;
19877;SDS011;10101;52.204;9.910;2022-07-29T12:42:37;8.25;;;1.92;;
19877;SDS011;10101;52.204;9.910;2022-07-29T12:45:05;3.78;;;1.90;;
19877;SDS011;10101;52.204;9.910;2022-07-29T12:47:33;6.70;;;2.08;;
19877;SDS011;10101;52.204;9.910;2022-07-29T12:50:17;9.75;;;2.28;;
19877;SDS011;10101;52.204;9.910;2022-07-29T12:52:44;6.90;;;1.95;;
19877;SDS011;10101;52.204;9.910;2022-07-29T12:55:12;3.33;;;2.00;;
19877;SDS011;10101;52.204;9.910;2022-07-29T12:57:49;5.00;;;2.03;;
19877;SDS011;10101;52.204;9.910;2022-07-29T13:00:21;5.00;;;2.03;;
19877;SDS011;10101;52.204;9.910;2022-07-29T13:02:54;4.30;;;1.90;;
19877;SDS011;10101;52.204;9.910;2022-07-29T13:05:23;8.00;;;2.72;;
19877;SDS011;10101;52.204;9.910;2022-07-29T13:07:50;5.65;;;2.30;;
19877;SDS011;10101;52.204;9.910;2022-07-29T13:10:17;5.68;;;2.22;;
19877;SDS011;10101;52.204;9.910;2022-07-29T13:13:01;4.65;;;2.28;;
19877;SDS011;10101;52.204;9.910;2022-07-29T13:15:28;2.75;;;1.90;;
19877;SDS011;10101;52.204;9.910;2022-07-29T13:17:55;5.60;;;2.20;;
19877;SDS011;10101;52.204;9.910;2022-07-29T13:20:25;2.78;;;1.80;;
19877;SDS011;10101;52.204;9.910;2022-07-29T13:22:54;6.93;;;2.15;;
19877;SDS011;10101;52.204;9.910;2022-07-29T13:25:25;9.90;;;2.22;;
19877;SDS011;10101;52.204;9.910;2022-07-29T13:27:53;5.97;;;2.10;;
19877;SDS011;10101;52.204;9.910;2022-07-29T13:30:21;9.35;;;2.25;;
19877;SDS011;10101;52.204;9.910;2022-07-29T13:32:49;5.95;;;2.22;;
19877;SDS011;10101;52.204;9.910;2022-07-29T13:35:16;7.72;;;2.13;;
19877;SDS011;10101;52.204;9.910;2022-07-29T13:37:45;6.35;;;2.25;;
19877;SDS011;10101;52.204;9.910;2022-07-29T13:40:12;4.45;;;2.20;;
19877;SDS011;10101;52.204;9.910;2022-07-29T13:42:40;10.45;;;2.22;;
19877;SDS011;10101;52.204;9.910;2022-07-29T13:45:07;6.00;;;2.30;;
19877;SDS011;10101;52.204;9.910;2022-07-29T13:47:35;4.50;;;1.98;;
19877;SDS011;10101;52.204;9.910;2022-07-29T13:50:03;4.82;;;2.40;;
19877;SDS011;10101;52.204;9.910;2022-07-29T13:52:31;12.48;;;3.10;;
19877;SDS011;10101;52.204;9.910;2022-07-29T13:55:00;9.68;;;2.75;;
19877;SDS011;10101;52.204;9.910;2022-07-29T13:57:27;8.75;;;2.38;;
19877;SDS011;10101;52.204;9.910;2022-07-29T13:59:54;7.35;;;2.58;;
19877;SDS011;10101;52.204;9.910;2022-07-29T14:02:21;4.30;;;2.08;;
19877;SDS011;10101;52.204;9.910;2022-07-29T14:04:48;4.03;;;2.13;;
19877;SDS011;10101;52.204;9.910;2022-07-29T14:07:15;6.63;;;2.40;;
19877;SDS011;10101;52.204;9.910;2022-07-29T14:09:42;14.63;;;3.22;;
19877;SDS011;10101;52.204;9.910;2022-07-29T14:12:11;12.40;;;2.63;;
19877;SDS011;10101;52.204;9.910;2022-07-29T14:14:37;5.88;;;2.67;;
19877;SDS011;10101;52.204;9.910;2022-07-29T14:17:05;7.10;;;2.47;;
19877;SDS011;10101;52.204;9.910;2022-07-29T14:19:32;6.68;;;2.50;;
19877;SDS011;10101;52.204;9.910;2022-07-29T14:22:01;6.03;;;2.55;;
19877;SDS011;10101;52.204;9.910;2022-07-29T14:24:28;6.90;;;2.42;;
19877;SDS011;10101;52.204;9.910;2022-07-29T14:26:56;4.05;;;2.35;;
19877;SDS011;10101;52.204;9.910;2022-07-29T14:29:24;5.40;;;2.50;;
19877;SDS011;10101;52.204;9.910;2022-07-29T14:31:51;7.22;;;2.60;;
19877;SDS011;10101;52.204;9.910;2022-07-29T14:34:18;4.53;;;2.30;;
19877;SDS011;10101;52.204;9.910;2022-07-29T14:36:45;6.60;;;2.10;;
19877;SDS011;10101;52.204;9.910;2022-07-29T14:39:11;3.47;;;2.20;;
19877;SDS011;10101;52.204;9.910;2022-07-29T14:41:40;4.22;;;1.95;;
19877;SDS011;10101;52.204;9.910;2022-07-29T14:44:07;6.25;;;2.72;;
19877;SDS011;10101;52.204;9.910;2022-07-29T14:46:35;8.10;;;2.65;;
19877;SDS011;10101;52.204;9.910;2022-07-29T14:49:02;5.78;;;2.30;;
19877;SDS011;10101;52.204;9.910;2022-07-29T14:51:29;4.65;;;1.83;;
19877;SDS011;10101;52.204;9.910;2022-07-29T14:53:56;4.88;;;1.95;;
19877;SDS011;10101;52.204;9.910;2022-07-29T14:56:23;5.38;;;2.10;;
19877;SDS011;10101;52.204;9.910;2022-07-29T14:58:50;4.05;;;2.05;;
19877;SDS011;10101;52.204;9.910;2022-07-29T15:01:16;4.80;;;2.13;;
19877;SDS011;10101;52.204;9.910;2022-07-29T15:03:44;4.22;;;2.10;;
19877;SDS011;10101;52.204;9.910;2022-07-29T15:06:11;3.33;;;1.80;;
19877;SDS011;10101;52.204;9.910;2022-07-29T15:08:38;6.35;;;2.30;;
19877;SDS011;10101;52.204;9.910;2022-07-29T15:11:05;13.75;;;2.55;;
19877;SDS011;10101;52.204;9.910;2022-07-29T15:13:32;8.10;;;2.10;;
19877;SDS011;10101;52.204;9.910;2022-07-29T15:15:59;6.32;;;2.00;;
19877;SDS011;10101;52.204;9.910;2022-07-29T15:18:26;7.47;;;2.13;;
19877;SDS011;10101;52.204;9.910;2022-07-29T15:20:54;7.93;;;2.13;;